Time;durP1;ratioP1;P1;durP2;ratioP2;P2;SDS_P1;SDS_P2;PMS_P1;PMS_P2;Temp;Humidity;BMP_temperature;BMP_pressure;BME280_temperature;BME280_humidity;BME280_pressure;Samples;Min_cycle;Max_cycle;Signal;HPM_P1;HPM_P2
2023/05/16 00:01:02;;;;;;;13.00;11.40;;;;;;;9.34;90.51;97330.61;106744;1276;24203;-78
2023/05/16 00:03:30;;;;;;;11.80;10.70;;;;;;;9.38;90.49;97329.75;106759;1276;22517;-78
2023/05/16 00:06:01;;;;;;;11.90;10.70;;;;;;;9.40;91.21;97325.41;106826;1276;22919;-78
2023/05/16 00:08:29;;;;;;;12.40;11.20;;;;;;;9.42;90.83;97324.44;106829;1276;22527;-78
2023/05/16 00:10:57;;;;;;;10.50;9.30;;;;;;;9.44;91.15;97323.70;106811;1276;25396;-78
2023/05/16 00:13:25;;;;;;;11.20;9.50;;;;;;;9.45;91.08;97325.35;106788;1276;23699;-78
2023/05/16 00:15:54;;;;;;;10.60;7.50;;;;;;;9.40;90.79;97330.08;106741;1276;22635;-79
2023/05/16 00:18:24;;;;;;;7.80;7.00;;;;;;;9.34;91.13;97330.65;106749;1276;22685;-78
2023/05/16 00:20:54;;;;;;;7.40;6.70;;;;;;;9.35;90.89;97334.40;106769;1276;22523;-79
2023/05/16 00:23:22;;;;;;;7.80;7.00;;;;;;;9.39;92.05;97335.77;106680;1276;22648;-79
2023/05/16 00:25:50;;;;;;;8.60;7.80;;;;;;;9.41;91.86;97338.73;106857;1276;22528;-79
2023/05/16 00:28:18;;;;;;;9.50;6.90;;;;;;;9.42;92.04;97346.30;106795;1276;24352;-79
2023/05/16 00:30:46;;;;;;;9.00;6.60;;;;;;;9.42;92.11;97348.48;106899;1276;22659;-79
2023/05/16 00:33:15;;;;;;;8.20;6.80;;;;;;;9.44;92.27;97349.20;106881;1276;24371;-78
2023/05/16 00:35:44;;;;;;;8.10;6.50;;;;;;;9.45;92.10;97343.63;106870;1276;25398;-79
2023/05/16 00:38:11;;;;;;;7.60;6.80;;;;;;;9.42;91.69;97340.17;106861;1276;25481;-79
2023/05/16 00:40:39;;;;;;;7.00;6.10;;;;;;;9.40;91.76;97337.95;106855;1276;25393;-79
2023/05/16 00:43:09;;;;;;;9.10;6.90;;;;;;;9.40;91.96;97345.42;106931;1276;22735;-79
2023/05/16 00:45:37;;;;;;;9.40;7.30;;;;;;;9.37;92.05;97348.19;107127;1269;22631;-78
2023/05/16 00:48:05;;;;;;;9.40;6.80;;;;;;;9.35;92.01;97351.56;106864;1276;23912;-78
2023/05/16 00:50:35;;;;;;;7.40;6.20;;;;;;;9.34;92.17;97352.20;106910;1272;22520;-77
2023/05/16 00:53:03;;;;;;;8.10;6.40;;;;;;;9.37;92.48;97351.95;106971;1275;22617;-77
2023/05/16 00:55:31;;;;;;;8.60;6.30;;;;;;;9.39;92.48;97350.13;106952;1275;22528;-77
2023/05/16 00:58:00;;;;;;;7.30;6.40;;;;;;;9.40;92.72;97350.58;106985;1275;22644;-77
2023/05/16 01:00:30;;;;;;;8.90;6.40;;;;;;;9.41;92.82;97350.04;106925;1275;22932;-77
2023/05/16 01:02:59;;;;;;;7.80;7.00;;;;;;;9.39;92.95;97347.65;106843;1275;24189;-78
2023/05/16 01:05:28;;;;;;;8.00;6.30;;;;;;;9.36;92.35;97349.44;106888;1265;22637;-79
2023/05/16 01:07:56;;;;;;;10.00;6.60;;;;;;;9.25;92.32;97350.10;106799;1270;22628;-78
2023/05/16 01:10:31;;;;;;;9.30;7.30;;;;;;;9.27;92.79;97345.83;106876;1269;22522;-78
2023/05/16 01:13:19;;;;;;;8.30;6.80;;;;;;;9.26;92.33;97340.35;106848;1276;23768;-78
2023/05/16 01:15:59;;;;;;;8.00;6.10;;;;;;;9.25;92.78;97340.96;106924;1275;22520;-78
2023/05/16 01:18:50;;;;;;;6.80;6.10;;;;;;;9.08;93.39;97340.23;106953;1275;22752;-77
2023/05/16 01:21:48;;;;;;;9.40;7.30;;;;;;;8.85;93.71;97339.69;106846;1275;23283;-77
2023/05/16 01:24:50;;;;;;;9.30;8.40;;;;;;;8.70;93.60;97334.03;107003;1275;24249;-78
2023/05/16 01:27:20;;;;;;;8.60;7.80;;;;;;;8.67;93.67;97333.55;106984;1275;22532;-77
2023/05/16 01:29:48;;;;;;;9.00;7.40;;;;;;;8.65;93.33;97335.21;106764;1275;22644;-77
2023/05/16 01:32:16;;;;;;;7.90;7.10;;;;;;;8.65;93.32;97340.52;106941;1275;24249;-77
2023/05/16 01:34:45;;;;;;;8.30;7.40;;;;;;;8.65;93.31;97339.35;106965;1275;22535;-77
2023/05/16 01:37:21;;;;;;;9.40;7.40;;;;;;;8.65;93.26;97344.41;106867;1275;22538;-77
2023/05/16 01:40:01;;;;;;;8.90;7.60;;;;;;;8.63;93.53;97346.20;106847;1275;25459;-78
2023/05/16 01:42:33;;;;;;;8.30;7.30;;;;;;;8.55;93.43;97348.02;106901;1275;24142;-77
2023/05/16 01:45:09;;;;;;;9.10;8.00;;;;;;;8.41;93.40;97349.78;106897;1275;22589;-77
2023/05/16 01:47:43;;;;;;;9.90;7.50;;;;;;;8.26;93.79;97346.88;106940;1275;24242;-77
2023/05/16 01:50:11;;;;;;;10.60;7.10;;;;;;;8.14;93.90;97345.48;106828;1275;23398;-77
2023/05/16 01:52:49;;;;;;;8.40;7.20;;;;;;;8.04;94.75;97346.32;106943;1275;24811;-77
2023/05/16 01:55:43;;;;;;;8.30;6.60;;;;;;;7.95;94.60;97347.00;106918;1272;22653;-77
2023/05/16 01:58:14;;;;;;;7.70;6.90;;;;;;;7.86;94.52;97350.48;106910;1275;22517;-77
2023/05/16 02:00:43;;;;;;;8.20;7.30;;;;;;;7.86;94.85;97351.83;107051;1275;25477;-77
2023/05/16 02:03:12;;;;;;;10.20;8.60;;;;;;;7.83;95.01;97349.95;106803;1275;22692;-77
2023/05/16 02:05:40;;;;;;;9.30;8.40;;;;;;;7.82;95.14;97345.24;106962;1275;25505;-77
2023/05/16 02:08:11;;;;;;;9.00;8.10;;;;;;;7.81;95.20;97343.86;106952;1275;22638;-76
2023/05/16 02:10:40;;;;;;;9.30;8.20;;;;;;;7.87;95.18;97343.51;106984;1270;22774;-77
2023/05/16 02:13:08;;;;;;;9.80;8.30;;;;;;;7.94;95.60;97349.54;106930;1275;22584;-77
2023/05/16 02:15:36;;;;;;;9.40;8.10;;;;;;;7.93;95.17;97350.37;106980;1275;22517;-77
2023/05/16 02:18:05;;;;;;;11.10;7.80;;;;;;;7.87;95.37;97350.09;106843;1275;22698;-77
2023/05/16 02:20:33;;;;;;;8.90;8.00;;;;;;;7.81;95.77;97352.98;106938;1268;22528;-77
2023/05/16 02:23:02;;;;;;;11.80;10.70;;;;;;;7.72;97.09;97345.94;106845;1275;24370;-77
2023/05/16 02:25:32;;;;;;;14.00;9.10;;;;;;;7.68;96.81;97345.47;106826;1275;25280;-77
2023/05/16 02:28:00;;;;;;;12.00;11.00;;;;;;;7.64;96.20;97347.09;106956;1275;22552;-78
2023/05/16 02:30:28;;;;;;;11.40;10.30;;;;;;;7.64;96.11;97350.84;106786;1275;22640;-77
2023/05/16 02:32:56;;;;;;;10.90;9.80;;;;;;;7.69;96.09;97348.98;106920;1275;22652;-79
2023/05/16 02:35:24;;;;;;;11.40;9.30;;;;;;;7.72;96.08;97351.20;106964;1275;25348;-78
2023/05/16 02:37:53;;;;;;;13.50;12.20;;;;;;;7.66;96.70;97349.58;106837;1275;25409;-78
2023/05/16 02:40:21;;;;;;;11.00;9.90;;;;;;;7.64;96.74;97357.65;106963;1275;22610;-79
2023/05/16 02:42:49;;;;;;;12.50;11.30;;;;;;;7.53;97.40;97358.42;106937;1275;24249;-78
2023/05/16 02:45:17;;;;;;;12.10;10.80;;;;;;;7.49;97.78;97361.91;106956;1275;25377;-78
2023/05/16 02:47:44;;;;;;;11.70;10.50;;;;;;;7.50;98.23;97359.23;106980;1275;22538;-78
2023/05/16 02:50:13;;;;;;;11.70;10.60;;;;;;;7.52;97.88;97356.50;106961;1272;23921;-78
2023/05/16 02:52:40;;;;;;;11.30;10.30;;;;;;;7.50;98.65;97354.92;106960;1275;23189;-78
2023/05/16 02:55:10;;;;;;;10.60;9.60;;;;;;;7.50;98.63;97349.52;106944;1275;22532;-78
2023/05/16 02:57:49;;;;;;;11.20;10.00;;;;;;;7.55;98.13;97346.37;106941;1275;25538;-78
2023/05/16 03:00:18;;;;;;;11.20;10.10;;;;;;;7.65;98.33;97351.73;106959;1275;24273;-78
2023/05/16 03:02:46;;;;;;;10.60;9.60;;;;;;;7.79;98.34;97355.44;106976;1275;22802;-78
2023/05/16 03:05:15;;;;;;;11.10;10.00;;;;;;;7.85;98.91;97356.56;106971;1275;22516;-78
2023/05/16 03:07:44;;;;;;;12.70;11.60;;;;;;;7.87;99.56;97355.39;106589;1275;23926;-78
2023/05/16 03:10:12;;;;;;;14.00;12.70;;;;;;;7.88;98.77;97351.95;106935;1275;24238;-78
2023/05/16 03:12:40;;;;;;;16.10;14.90;;;;;;;7.91;98.75;97349.81;106932;1275;22535;-78
2023/05/16 03:15:08;;;;;;;17.50;15.80;;;;;;;7.93;98.38;97348.85;106939;1275;24418;-78
2023/05/16 03:17:37;;;;;;;29.50;27.00;;;;;;;7.95;98.96;97349.31;106811;1275;22530;-78
2023/05/16 03:20:07;;;;;;;22.60;20.60;;;;;;;7.97;99.75;97348.67;106917;1275;24259;-79
2023/05/16 03:22:36;;;;;;;22.50;20.60;;;;;;;7.97;99.79;97351.95;106893;1275;22650;-78
2023/05/16 03:25:04;;;;;;;21.80;19.80;;;;;;;7.96;99.14;97352.45;106965;1275;25249;-79
2023/05/16 03:27:32;;;;;;;26.70;24.20;;;;;;;7.99;99.34;97353.75;106966;1272;22654;-78
2023/05/16 03:30:01;;;;;;;22.30;20.30;;;;;;;7.95;99.32;97351.04;106950;1275;22526;-78
2023/05/16 03:32:29;;;;;;;24.10;22.10;;;;;;;7.93;99.49;97349.29;106943;1275;25211;-78
2023/05/16 03:34:57;;;;;;;17.10;15.40;;;;;;;7.93;99.72;97354.17;106938;1275;23923;-78
2023/05/16 03:37:25;;;;;;;12.90;11.70;;;;;;;7.93;99.82;97359.80;106989;1275;25399;-78
2023/05/16 03:39:54;;;;;;;11.70;10.60;;;;;;;7.96;99.93;97370.25;106990;1275;22630;-78
2023/05/16 03:42:22;;;;;;;14.10;11.70;;;;;;;7.99;99.73;97371.84;106929;1275;22550;-78
2023/05/16 03:44:49;;;;;;;11.20;10.20;;;;;;;8.06;99.88;97378.31;106924;1275;24789;-78
2023/05/16 03:47:17;;;;;;;10.00;7.70;;;;;;;8.09;100.00;97384.59;106915;1275;26522;-78
2023/05/16 03:49:45;;;;;;;11.00;8.70;;;;;;;8.09;100.00;97385.63;106955;1275;22633;-78
2023/05/16 03:52:13;;;;;;;10.00;7.90;;;;;;;8.11;100.00;97377.09;106931;1275;25415;-78
2023/05/16 03:54:41;;;;;;;8.90;8.10;;;;;;;8.12;100.00;97376.23;106951;1275;22664;-78
2023/05/16 03:57:09;;;;;;;10.80;8.70;;;;;;;8.17;100.00;97379.51;106962;1275;22648;-80
2023/05/16 03:59:38;;;;;;;9.90;8.90;;;;;;;8.29;100.00;97382.48;106995;1275;25262;-79
2023/05/16 04:02:06;;;;;;;12.90;11.00;;;;;;;8.42;100.00;97380.33;106815;1275;22637;-78
2023/05/16 04:04:34;;;;;;;11.70;8.80;;;;;;;8.59;100.00;97380.45;106928;1275;22525;-78
2023/05/16 04:07:03;;;;;;;10.00;7.40;;;;;;;8.72;100.00;97374.13;106908;1275;25515;-78
2023/05/16 04:09:31;;;;;;;12.00;7.80;;;;;;;8.74;100.00;97373.17;107000;1275;23188;-78
2023/05/16 04:12:01;;;;;;;11.80;10.60;;;;;;;8.80;100.00;97373.38;106884;1275;22533;-78
2023/05/16 04:14:30;;;;;;;13.20;11.70;;;;;;;8.91;100.00;97371.92;106984;1275;22557;-78
2023/05/16 04:16:58;;;;;;;10.60;9.20;;;;;;;9.01;100.00;97379.92;106780;1275;22676;-78
2023/05/16 04:19:26;;;;;;;14.60;12.10;;;;;;;9.11;100.00;97381.38;106962;1275;22929;-78
2023/05/16 04:21:54;;;;;;;13.20;10.70;;;;;;;9.24;100.00;97380.14;106835;1275;22539;-77
2023/05/16 04:24:25;;;;;;;10.50;9.50;;;;;;;9.40;100.00;97386.67;106791;1275;22630;-77
2023/05/16 04:26:54;;;;;;;11.30;10.10;;;;;;;9.50;100.00;97386.27;106932;1275;23316;-78
2023/05/16 04:29:22;;;;;;;10.90;9.00;;;;;;;9.65;100.00;97390.19;106893;1260;26618;-79
2023/05/16 04:31:50;;;;;;;10.50;9.50;;;;;;;9.81;100.00;97395.77;106944;1275;23021;-78
2023/05/16 04:34:18;;;;;;;11.10;9.90;;;;;;;9.97;100.00;97399.91;106885;1275;24049;-80
2023/05/16 04:36:46;;;;;;;14.30;12.30;;;;;;;10.12;100.00;97401.96;106993;1275;25386;-80
2023/05/16 04:39:14;;;;;;;13.10;9.00;;;;;;;10.26;100.00;97411.75;106975;1275;25306;-77
2023/05/16 04:41:42;;;;;;;25.90;16.50;;;;;;;10.39;100.00;97414.26;106840;1275;22521;-78
2023/05/16 04:44:10;;;;;;;14.30;11.40;;;;;;;10.54;100.00;97414.23;106752;1275;22524;-78
2023/05/16 04:46:38;;;;;;;14.40;9.90;;;;;;;10.72;100.00;97418.08;106748;1275;22527;-78
2023/05/16 04:49:07;;;;;;;11.80;10.40;;;;;;;10.90;100.00;97414.94;106902;1275;25493;-78
2023/05/16 04:51:35;;;;;;;15.40;10.40;;;;;;;11.04;100.00;97418.31;107029;1275;22471;-76
2023/05/16 04:54:03;;;;;;;31.30;20.10;;;;;;;11.16;100.00;97424.34;106799;1275;22534;-78
2023/05/16 04:56:31;;;;;;;15.70;13.40;;;;;;;11.27;100.00;97427.30;106922;1275;24217;-78
2023/05/16 04:58:59;;;;;;;19.30;11.10;;;;;;;11.38;100.00;97431.30;106905;1275;22537;-77
2023/05/16 05:01:27;;;;;;;14.30;11.70;;;;;;;11.51;100.00;97434.05;106973;1275;24368;-77
2023/05/16 05:03:55;;;;;;;22.30;14.50;;;;;;;11.64;99.66;97437.48;106792;1275;24373;-76
2023/05/16 05:06:23;;;;;;;13.80;10.70;;;;;;;11.74;98.44;97437.42;106791;1275;23905;-78
2023/05/16 05:08:53;;;;;;;10.80;7.60;;;;;;;11.82;96.16;97442.71;106941;1275;24256;-77
2023/05/16 05:11:22;;;;;;;15.20;7.90;;;;;;;11.88;96.38;97445.90;107004;1275;23145;-78
2023/05/16 05:13:50;;;;;;;10.10;7.40;;;;;;;11.95;97.03;97449.68;106810;1275;22608;-78
2023/05/16 05:16:19;;;;;;;13.00;10.80;;;;;;;12.04;97.32;97451.42;106963;1275;22627;-78
2023/05/16 05:18:47;;;;;;;11.80;7.50;;;;;;;12.15;97.35;97447.73;106957;1275;24170;-78
2023/05/16 05:21:17;;;;;;;11.30;8.10;;;;;;;12.25;96.44;97444.06;106949;1275;22613;-80
2023/05/16 05:23:45;;;;;;;13.90;9.90;;;;;;;12.32;96.71;97445.64;107004;1275;25390;-78
2023/05/16 05:26:14;;;;;;;10.40;9.30;;;;;;;12.37;96.87;97441.09;106924;1275;22653;-78
2023/05/16 05:28:42;;;;;;;16.60;11.00;;;;;;;12.43;96.38;97448.16;106854;1275;22534;-78
2023/05/16 05:31:21;;;;;;;16.50;14.60;;;;;;;12.48;95.84;97449.73;106706;1275;22540;-78
2023/05/16 05:33:48;;;;;;;15.30;13.80;;;;;;;12.50;95.09;97444.75;106905;1275;22655;-77
2023/05/16 05:36:16;;;;;;;11.40;9.70;;;;;;;12.54;94.83;97443.69;107037;1275;26634;-78
2023/05/16 05:38:45;;;;;;;9.20;8.00;;;;;;;12.61;94.00;97452.55;107101;1275;22630;-78
2023/05/16 05:41:13;;;;;;;10.50;9.30;;;;;;;12.70;92.70;97447.90;107151;1275;22528;-78
2023/05/16 05:43:41;;;;;;;8.60;6.90;;;;;;;12.79;92.64;97447.38;107381;1275;22612;-77
2023/05/16 05:46:09;;;;;;;11.00;8.10;;;;;;;12.84;91.03;97444.51;107041;1275;22510;-78
2023/05/16 05:48:37;;;;;;;9.60;6.90;;;;;;;12.90;91.43;97444.60;106974;1275;22734;-75
2023/05/16 05:51:05;;;;;;;9.30;7.40;;;;;;;13.02;91.12;97444.56;107139;1275;177336;-76
2023/05/16 05:53:34;;;;;;;9.20;6.70;;;;;;;13.15;90.64;97443.50;106882;1275;24062;-78
2023/05/16 05:56:01;;;;;;;9.30;6.90;;;;;;;13.22;88.88;97453.14;106994;1275;25452;-79
2023/05/16 05:58:30;;;;;;;7.40;6.70;;;;;;;13.24;88.33;97461.64;107040;1275;26535;-80
2023/05/16 06:00:58;;;;;;;8.10;6.90;;;;;;;13.25;88.24;97463.46;107166;1275;24337;-79
2023/05/16 06:03:25;;;;;;;7.80;7.00;;;;;;;13.30;87.95;97452.55;107501;1272;22504;-81
2023/05/16 06:05:53;;;;;;;9.10;6.50;;;;;;;13.42;89.17;97455.01;107394;1275;22570;-78
2023/05/16 06:08:22;;;;;;;10.50;7.40;;;;;;;13.58;87.91;97453.71;107067;1269;22575;-78
2023/05/16 06:10:50;;;;;;;8.30;7.20;;;;;;;13.75;87.33;97451.77;107060;1275;25570;-79
2023/05/16 06:13:17;;;;;;;10.90;7.40;;;;;;;13.80;85.94;97455.46;106854;1275;22781;-78
2023/05/16 06:15:53;;;;;;;8.90;7.40;;;;;;;13.80;84.67;97451.90;106907;1275;24385;-77
2023/05/16 06:18:20;;;;;;;11.20;8.00;;;;;;;13.77;84.33;97452.38;107060;1275;22678;-80
2023/05/16 06:20:49;;;;;;;8.30;7.40;;;;;;;13.76;84.61;97448.13;107059;1275;25600;-79
2023/05/16 06:23:17;;;;;;;8.00;7.20;;;;;;;13.85;84.86;97447.84;107067;1275;24401;-78
2023/05/16 06:25:48;;;;;;;10.30;7.30;;;;;;;14.08;85.82;97446.94;107118;1275;22829;-81
2023/05/16 06:28:15;;;;;;;10.90;6.50;;;;;;;14.25;84.67;97450.02;106996;1275;22669;-80
2023/05/16 06:30:43;;;;;;;9.40;6.30;;;;;;;14.35;83.75;97456.88;107150;1275;22573;-78
2023/05/16 06:33:11;;;;;;;8.10;6.90;;;;;;;14.39;81.88;97458.09;106907;1269;24212;-79
2023/05/16 06:35:39;;;;;;;10.50;7.20;;;;;;;14.38;80.18;97450.34;107068;1275;22518;-82
2023/05/16 06:38:07;;;;;;;10.90;6.90;;;;;;;14.36;80.71;97446.63;107115;1274;25299;-83
2023/05/16 06:40:36;;;;;;;10.70;7.90;;;;;;;14.43;81.52;97441.13;107163;1275;22617;-80
2023/05/16 06:43:04;;;;;;;8.50;7.70;;;;;;;14.50;81.70;97445.40;107162;1275;24360;-81
2023/05/16 06:45:32;;;;;;;10.50;7.50;;;;;;;14.58;81.62;97448.93;107105;1275;25495;-81
2023/05/16 06:48:00;;;;;;;8.90;7.00;;;;;;;14.68;81.98;97452.84;107038;1275;22622;-80
2023/05/16 06:50:28;;;;;;;8.00;6.80;;;;;;;14.82;81.42;97459.52;107088;1275;25595;-81
2023/05/16 06:52:56;;;;;;;8.40;7.00;;;;;;;14.91;80.82;97463.72;107102;1275;22592;-80
2023/05/16 06:55:24;;;;;;;8.10;7.10;;;;;;;14.96;80.40;97459.14;107138;1275;24444;-81
2023/05/16 06:57:53;;;;;;;11.50;7.70;;;;;;;14.99;78.94;97456.88;107034;1275;24115;-82
2023/05/16 07:00:21;;;;;;;8.50;6.70;;;;;;;14.95;77.82;97457.46;107069;1275;25408;-82
2023/05/16 07:02:49;;;;;;;8.80;7.20;;;;;;;14.96;79.39;97465.09;107063;1275;24225;-82
2023/05/16 07:05:17;;;;;;;12.40;8.10;;;;;;;15.01;78.35;97464.93;107074;1275;22523;-82
2023/05/16 07:07:46;;;;;;;11.00;8.00;;;;;;;15.08;78.93;97466.02;107009;1274;22512;-82
2023/05/16 07:10:14;;;;;;;8.50;7.50;;;;;;;15.19;78.67;97465.21;107105;1275;22561;-80
2023/05/16 07:12:43;;;;;;;11.80;6.80;;;;;;;15.32;79.36;97463.54;107102;1275;22521;-82
2023/05/16 07:15:11;;;;;;;12.50;7.70;;;;;;;15.50;79.52;97460.96;107037;1275;22625;-80
2023/05/16 07:17:40;;;;;;;12.30;8.70;;;;;;;15.68;79.55;97457.72;107030;1275;22614;-80
2023/05/16 07:20:12;;;;;;;10.20;7.90;;;;;;;15.82;76.81;97465.76;107049;1275;22523;-79
2023/05/16 07:22:40;;;;;;;10.10;7.50;;;;;;;15.90;76.86;97472.83;107439;1263;23258;-79
2023/05/16 07:25:11;;;;;;;9.00;6.90;;;;;;;16.04;76.05;97476.80;107136;1269;22536;-80
2023/05/16 07:27:40;;;;;;;11.20;8.10;;;;;;;16.16;76.89;97479.55;107093;1275;24407;-78
2023/05/16 07:30:11;;;;;;;14.00;8.50;;;;;;;16.23;76.19;97478.42;107038;1275;24049;-79
2023/05/16 07:32:40;;;;;;;12.20;7.20;;;;;;;16.29;75.76;97482.48;107112;1275;24071;-83
2023/05/16 07:35:09;;;;;;;8.80;6.50;;;;;;;16.42;76.95;97487.34;107156;1275;22562;-80
2023/05/16 07:37:37;;;;;;;9.20;7.20;;;;;;;16.51;73.61;97490.00;107080;1269;25376;-80
2023/05/16 07:40:06;;;;;;;8.20;6.80;;;;;;;16.47;71.28;97495.16;107150;1275;25259;-80
2023/05/16 07:42:34;;;;;;;8.80;6.70;;;;;;;16.46;73.62;97495.53;107174;1275;25395;-81
2023/05/16 07:45:02;;;;;;;10.00;8.30;;;;;;;16.64;74.24;97496.69;106845;1275;24425;-80
2023/05/16 07:47:30;;;;;;;10.80;8.20;;;;;;;16.84;74.55;97495.16;106815;1275;22777;-80
2023/05/16 07:49:58;;;;;;;13.30;7.10;;;;;;;17.06;75.20;97497.20;107087;1275;22535;-78
2023/05/16 07:52:26;;;;;;;9.00;6.60;;;;;;;17.25;74.58;97495.56;107105;1275;22511;-79
2023/05/16 07:54:54;;;;;;;8.20;7.10;;;;;;;17.40;73.41;97501.66;107158;1275;24202;-81
2023/05/16 07:57:23;;;;;;;11.30;7.20;;;;;;;17.49;73.33;97511.92;107088;1275;22522;-78
2023/05/16 07:59:52;;;;;;;10.70;7.60;;;;;;;17.58;73.08;97524.67;107132;1252;22528;-78
2023/05/16 08:02:23;;;;;;;9.40;7.30;;;;;;;17.71;73.69;97533.78;107141;1269;24442;-78
2023/05/16 08:04:51;;;;;;;8.90;6.50;;;;;;;17.84;72.91;97533.98;107117;1275;22515;-78
2023/05/16 08:07:19;;;;;;;11.20;7.20;;;;;;;17.95;72.99;97531.30;107142;1275;22708;-78
2023/05/16 08:09:47;;;;;;;12.30;11.00;;;;;;;18.02;72.53;97528.04;106773;1276;22529;-77
2023/05/16 08:12:15;;;;;;;10.90;6.70;;;;;;;18.00;71.66;97526.71;107035;1276;24355;-78
2023/05/16 08:14:43;;;;;;;17.80;15.90;;;;;;;18.07;72.64;97520.58;107097;1275;22533;-78
2023/05/16 08:17:11;;;;;;;8.70;7.20;;;;;;;18.18;70.25;97518.93;107108;1275;25367;-77
2023/05/16 08:19:40;;;;;;;10.60;6.00;;;;;;;18.27;70.83;97514.60;107115;1275;25367;-77
2023/05/16 08:22:08;;;;;;;8.50;6.00;;;;;;;18.37;69.63;97509.04;107109;1275;22570;-78
2023/05/16 08:24:36;;;;;;;11.30;5.80;;;;;;;18.45;67.73;97511.67;107111;1275;25396;-78
2023/05/16 08:27:05;;;;;;;7.30;6.20;;;;;;;18.49;67.21;97523.37;107097;1275;22634;-78
2023/05/16 08:29:33;;;;;;;7.60;5.90;;;;;;;18.34;65.27;97538.59;107075;1275;22522;-78
2023/05/16 08:32:01;;;;;;;7.70;6.90;;;;;;;18.09;62.52;97531.52;107079;1275;25635;-77
2023/05/16 08:34:32;;;;;;;9.90;7.40;;;;;;;17.89;63.92;97530.70;107132;1267;22532;-78
2023/05/16 08:37:00;;;;;;;10.30;9.10;;;;;;;17.90;66.13;97535.02;107084;1275;25296;-77
2023/05/16 08:39:29;;;;;;;9.10;7.20;;;;;;;18.03;66.01;97535.81;107115;1275;22636;-78
2023/05/16 08:41:58;;;;;;;8.40;6.50;;;;;;;18.11;64.34;97538.98;107172;1275;22557;-77
2023/05/16 08:44:27;;;;;;;8.80;6.50;;;;;;;18.18;65.67;97537.94;107117;1275;25431;-79
2023/05/16 08:46:56;;;;;;;7.20;6.30;;;;;;;18.30;65.70;97534.05;106936;1275;22523;-79
2023/05/16 08:49:26;;;;;;;11.40;6.30;;;;;;;18.44;65.99;97535.13;106661;1275;22645;-79
2023/05/16 08:51:57;;;;;;;8.70;6.30;;;;;;;18.76;66.50;97532.72;106986;1275;25274;-78
2023/05/16 08:54:26;;;;;;;8.00;6.00;;;;;;;19.00;66.55;97529.06;106927;1275;24264;-78
2023/05/16 08:56:57;;;;;;;9.00;6.30;;;;;;;19.16;66.53;97523.54;106987;1275;24317;-78
2023/05/16 08:59:25;;;;;;;8.80;6.30;;;;;;;19.23;65.94;97516.95;106997;1275;22554;-78
2023/05/16 09:01:54;;;;;;;7.90;5.50;;;;;;;19.25;61.34;97517.69;106903;1275;25322;-78
2023/05/16 09:04:24;;;;;;;7.80;6.20;;;;;;;19.07;59.07;97523.77;107078;1275;22637;-79
2023/05/16 09:06:53;;;;;;;7.50;5.80;;;;;;;18.90;60.49;97520.42;106954;1275;24229;-79
2023/05/16 09:09:21;;;;;;;6.90;5.50;;;;;;;18.78;57.23;97526.91;107107;1275;22612;-79
2023/05/16 09:11:49;;;;;;;7.60;5.60;;;;;;;18.79;60.52;97530.77;107167;1275;25221;-80
2023/05/16 09:14:17;;;;;;;7.30;5.80;;;;;;;18.96;60.56;97530.14;106913;1275;24369;-77
2023/05/16 09:17:03;;;;;;;8.40;5.70;;;;;;;19.03;59.91;97529.48;106991;1275;22942;-79
2023/05/16 09:19:39;;;;;;;8.40;5.80;;;;;;;19.03;60.25;97531.04;106944;1275;22630;-79
2023/05/16 09:22:10;;;;;;;8.40;5.70;;;;;;;19.05;60.45;97526.95;106844;1275;22607;-78
2023/05/16 09:24:47;;;;;;;7.30;5.40;;;;;;;19.13;60.88;97521.78;106852;1275;25629;-80
2023/05/16 09:27:15;;;;;;;8.40;6.00;;;;;;;19.22;60.69;97517.31;106906;1275;23928;-80
2023/05/16 09:29:45;;;;;;;7.60;5.60;;;;;;;19.41;60.67;97519.59;107140;1275;22645;-80
2023/05/16 09:32:16;;;;;;;10.90;6.50;;;;;;;19.63;60.40;97522.12;107174;1275;22538;-79
2023/05/16 09:34:50;;;;;;;7.20;5.40;;;;;;;19.75;60.51;97519.20;107192;1275;24787;-79
2023/05/16 09:37:19;;;;;;;8.90;5.80;;;;;;;19.96;60.59;97516.75;107287;1267;24247;-80
2023/05/16 09:39:49;;;;;;;9.30;5.50;;;;;;;20.17;60.07;97517.42;106843;1275;22585;-79
2023/05/16 09:42:19;;;;;;;9.60;5.30;;;;;;;20.33;59.81;97511.85;107370;1270;22527;-79
2023/05/16 09:44:50;;;;;;;8.10;5.50;;;;;;;20.46;60.24;97518.18;107189;1272;23257;-80
2023/05/16 09:47:20;;;;;;;6.20;5.40;;;;;;;20.66;60.60;97520.87;107361;1269;22561;-80
2023/05/16 09:49:52;;;;;;;11.20;5.40;;;;;;;20.84;59.20;97515.04;107233;1275;26640;-80
2023/05/16 09:52:20;;;;;;;12.10;6.70;;;;;;;21.04;58.95;97515.55;107176;1275;22626;-80
2023/05/16 09:54:48;;;;;;;9.10;5.40;;;;;;;21.08;57.76;97515.90;107290;1253;24347;-80
2023/05/16 09:57:20;;;;;;;8.70;5.70;;;;;;;21.10;57.85;97522.09;107199;1275;24729;-80
2023/05/16 09:59:49;;;;;;;11.30;6.40;;;;;;;21.07;57.36;97520.89;107164;1275;22882;-80
2023/05/16 10:02:18;;;;;;;9.80;6.00;;;;;;;21.00;56.16;97520.29;107155;1275;25322;-81
2023/05/16 10:04:46;;;;;;;10.90;5.40;;;;;;;20.89;57.08;97512.89;107186;1275;22543;-79
2023/05/16 10:07:15;;;;;;;6.50;5.30;;;;;;;20.94;57.73;97514.73;107028;1275;24441;-80
2023/05/16 10:09:45;;;;;;;7.60;4.90;;;;;;;21.03;55.34;97509.34;107201;1275;22666;-79
2023/05/16 10:12:14;;;;;;;9.00;5.10;;;;;;;20.84;53.60;97512.77;106992;1275;23892;-79
2023/05/16 10:14:45;;;;;;;6.10;4.70;;;;;;;20.72;53.62;97509.83;107174;1275;22580;-79
2023/05/16 10:17:17;;;;;;;7.00;5.30;;;;;;;20.65;51.83;97509.28;107094;1275;22608;-80
2023/05/16 10:19:46;;;;;;;7.20;5.10;;;;;;;20.42;52.93;97503.05;107082;1275;22651;-79
2023/05/16 10:22:15;;;;;;;9.10;5.10;;;;;;;20.38;52.77;97500.59;107080;1275;22518;-78
2023/05/16 10:25:06;;;;;;;7.50;5.20;;;;;;;20.43;53.66;97504.00;107209;1270;22620;-84
2023/05/16 10:27:35;;;;;;;6.60;5.30;;;;;;;20.60;53.82;97500.38;106410;1283;24530;-80
2023/05/16 10:30:04;;;;;;;7.30;5.40;;;;;;;20.77;53.90;97498.45;106462;1280;22549;-79
2023/05/16 10:32:33;;;;;;;7.50;4.80;;;;;;;20.90;54.58;97496.08;106417;1283;24752;-79
2023/05/16 10:35:03;;;;;;;9.80;5.30;;;;;;;20.95;52.77;97496.13;106500;1283;24443;-79
2023/05/16 10:37:32;;;;;;;6.70;5.00;;;;;;;20.86;53.35;97490.42;106590;1283;22648;-80
2023/05/16 10:40:01;;;;;;;9.70;5.00;;;;;;;20.88;53.80;97490.89;106654;1283;22632;-80
2023/05/16 10:42:31;;;;;;;6.70;5.20;;;;;;;20.90;54.30;97490.91;106530;1283;22561;-79
2023/05/16 10:45:16;;;;;;;8.20;5.10;;;;;;;20.94;53.87;97490.63;106530;1283;24683;-79
2023/05/16 10:47:55;;;;;;;7.70;4.70;;;;;;;20.93;53.08;97487.98;106612;1283;22702;-78
2023/05/16 10:50:43;;;;;;;10.90;5.60;;;;;;;20.78;51.58;97489.86;106690;1283;22544;-79
2023/05/16 10:53:17;;;;;;;6.70;5.00;;;;;;;20.58;51.23;97494.73;106564;1283;22530;-78
2023/05/16 10:55:57;;;;;;;6.90;5.00;;;;;;;20.52;52.06;97493.16;106556;1278;25287;-79
2023/05/16 10:58:37;;;;;;;9.00;4.90;;;;;;;20.58;52.30;97494.04;106478;1283;22545;-78
2023/05/16 11:01:16;;;;;;;9.50;5.20;;;;;;;20.73;53.24;97493.86;106396;1283;22549;-80
2023/05/16 11:04:11;;;;;;;7.80;5.40;;;;;;;20.96;53.72;97490.50;106465;1283;22801;-78
2023/05/16 11:06:39;;;;;;;9.30;5.90;;;;;;;21.18;53.37;97483.80;107098;1275;25217;-78
2023/05/16 11:09:12;;;;;;;6.40;4.80;;;;;;;21.31;53.26;97480.94;107097;1275;22524;-80
2023/05/16 11:12:33;;;;;;;6.70;4.30;;;;;;;21.31;51.15;97484.55;106890;1275;25665;-84
2023/05/16 11:17:07;;;;;;;6.20;3.30;;;;;;;21.34;53.16;97481.76;106386;1284;23945;-86
2023/05/16 11:21:02;;;;;;;6.10;3.90;;;;;;;21.92;53.73;97477.84;106293;1287;22657;-86
2023/05/16 11:23:30;;;;;;;7.90;4.70;;;;;;;22.18;52.77;97479.86;106358;1287;24253;-88
2023/05/16 11:26:00;;;;;;;5.80;4.50;;;;;;;22.02;49.22;97477.04;106342;1287;22589;-88
2023/05/16 11:28:28;;;;;;;9.00;4.60;;;;;;;21.79;50.83;97471.04;106291;1287;22587;-89
2023/05/16 11:30:58;;;;;;;8.20;4.50;;;;;;;21.85;50.67;97468.33;106341;1287;22594;-90
2023/05/16 11:33:33;;;;;;;9.00;4.50;;;;;;;21.90;51.60;97463.11;106317;1288;22532;-90
2023/05/16 11:36:07;;;;;;;9.60;5.00;;;;;;;22.10;51.29;97461.55;106338;1288;22539;-90
2023/05/16 11:38:42;;;;;;;5.90;4.70;;;;;;;22.17;50.79;97460.04;106246;1288;22548;-88